createdAt,value
2023-05-05T00:03:42.817Z,60.88
2023-05-05T00:08:46.535Z,64.07
2023-05-05T00:13:49.828Z,62.51
2023-05-05T00:18:52.937Z,59.15
2023-05-05T00:23:56.157Z,61.45
2023-05-05T00:28:59.259Z,63.97
2023-05-05T00:34:02.279Z,63.16
2023-05-05T00:39:05.281Z,63.15
2023-05-05T00:44:08.895Z,64.00
2023-05-05T00:49:12.563Z,64.54
2023-05-05T00:54:15.832Z,64.33
2023-05-05T00:59:19.042Z,65.06
2023-05-05T01:04:22.358Z,65.82
2023-05-05T01:09:32.400Z,66.62
2023-05-05T01:14:39.836Z,66.90
2023-05-05T01:19:58.098Z,67.72
2023-05-05T01:25:48.322Z,67.87
2023-05-05T01:31:03.414Z,68.44
2023-05-05T01:36:16.316Z,69.33
2023-05-05T01:41:34.708Z,68.67
2023-05-05T01:46:38.230Z,68.66
2023-05-05T01:51:42.416Z,68.77
2023-05-05T01:56:46.483Z,69.70
2023-05-05T02:01:50.722Z,70.19
2023-05-05T02:06:56.574Z,69.74
2023-05-05T02:12:02.454Z,69.99
2023-05-05T02:17:05.590Z,70.88
2023-05-05T02:22:08.907Z,70.79
2023-05-05T02:27:12.500Z,70.75
2023-05-05T02:32:20.843Z,70.45
2023-05-05T02:37:27.776Z,70.75
2023-05-05T02:42:41.856Z,70.01
2023-05-05T02:47:45.091Z,69.62
2023-05-05T02:52:48.438Z,69.30
2023-05-05T02:58:14.178Z,69.01
2023-05-05T03:03:44.934Z,69.64
2023-05-05T03:09:02.996Z,70.18
2023-05-05T03:14:10.807Z,69.34
2023-05-05T03:19:18.192Z,69.29
2023-05-05T03:24:21.663Z,68.99
2023-05-05T03:29:25.561Z,68.91
2023-05-05T03:34:28.674Z,68.94
2023-05-05T03:39:31.861Z,68.65
2023-05-05T03:44:36.848Z,68.58
2023-05-05T03:49:39.864Z,69.50
2023-05-05T03:54:43.259Z,68.81
2023-05-05T03:59:46.786Z,68.74
2023-05-05T04:04:49.786Z,68.05
2023-05-05T04:09:53.005Z,67.69
2023-05-05T04:14:56.108Z,69.01
2023-05-05T04:19:59.318Z,68.96
2023-05-05T04:25:02.679Z,68.94
2023-05-05T04:30:07.069Z,69.25
2023-05-05T04:35:10.296Z,69.19
2023-05-05T04:40:13.708Z,69.29
2023-05-05T04:45:16.807Z,69.21
2023-05-05T04:50:19.946Z,68.64
2023-05-05T04:55:23.061Z,68.76
2023-05-05T05:00:26.136Z,67.70
2023-05-05T05:05:29.252Z,67.90
2023-05-05T05:10:32.348Z,67.57
2023-05-05T05:15:38.430Z,66.89
2023-05-05T05:20:41.644Z,64.25
2023-05-05T05:25:44.756Z,61.59
2023-05-05T05:30:48.046Z,59.59
2023-05-05T05:35:51.072Z,58.39
2023-05-05T05:40:54.688Z,58.18
2023-05-05T05:45:57.678Z,56.24
2023-05-05T05:51:02.236Z,54.65
2023-05-05T05:56:06.141Z,54.25
2023-05-05T06:01:09.113Z,54.92
2023-05-05T06:06:12.181Z,53.73
2023-05-05T06:11:15.286Z,51.49
2023-05-05T06:16:18.401Z,49.66
2023-05-05T06:21:21.810Z,46.12
2023-05-05T06:26:26.350Z,42.62
2023-05-05T06:31:29.588Z,41.92
2023-05-05T06:36:32.849Z,40.05
2023-05-05T06:41:36.293Z,36.44
2023-05-05T06:46:39.529Z,34.26
2023-05-05T06:51:43.052Z,33.42
2023-05-05T06:56:46.958Z,33.01
2023-05-05T07:01:51.187Z,32.67
2023-05-05T07:06:55.547Z,31.89
2023-05-05T07:11:58.773Z,30.89
2023-05-05T07:17:01.942Z,30.12
2023-05-05T07:22:05.287Z,29.57
2023-05-05T07:27:08.721Z,30.07
2023-05-05T07:32:12.053Z,30.61
2023-05-05T07:37:15.311Z,31.09
2023-05-05T07:42:18.526Z,30.96
2023-05-05T07:47:21.817Z,31.66
2023-05-05T07:52:43.703Z,32.32
2023-05-05T07:57:49.852Z,33.13
2023-05-05T08:02:53.119Z,33.20
2023-05-05T08:07:56.285Z,32.66
2023-05-05T08:12:59.436Z,32.79
2023-05-05T08:18:02.662Z,32.83
2023-05-05T08:23:06.432Z,32.80
2023-05-05T08:28:09.639Z,33.42
2023-05-05T08:33:13.012Z,34.34
2023-05-05T08:38:16.473Z,33.77
2023-05-05T08:43:22.925Z,33.55
2023-05-05T08:48:28.565Z,34.67
2023-05-05T08:53:34.205Z,38.38
2023-05-05T08:58:37.807Z,41.70
2023-05-05T09:03:41.141Z,42.51
2023-05-05T09:08:44.749Z,42.76
2023-05-05T09:19:09.101Z,44.96
2023-05-05T09:24:13.471Z,44.14
2023-05-05T09:29:23.429Z,44.17
2023-05-05T09:34:26.967Z,44.12
2023-05-05T09:39:30.038Z,43.76
2023-05-05T09:44:35.289Z,43.15
2023-05-05T09:49:39.020Z,44.00
2023-05-05T09:54:43.461Z,43.30
2023-05-05T10:00:16.262Z,44.00
2023-05-05T10:05:19.614Z,43.52
2023-05-05T10:10:22.871Z,43.64
2023-05-05T10:15:26.090Z,42.14
2023-05-05T10:20:33.375Z,42.35
2023-05-05T10:25:47.456Z,42.94
2023-05-05T10:30:54.579Z,42.53
2023-05-05T10:36:05.563Z,43.29
2023-05-05T10:41:10.496Z,42.28
2023-05-05T10:46:13.779Z,42.35
2023-05-05T10:51:53.086Z,41.05
2023-05-05T10:56:58.252Z,41.16
2023-05-05T11:02:01.456Z,41.20
2023-05-05T11:07:14.722Z,41.19
2023-05-05T11:12:18.224Z,40.54
2023-05-05T11:17:47.280Z,40.25
2023-05-05T11:23:02.749Z,40.42
2023-05-05T11:28:08.853Z,40.97
2023-05-05T11:33:30.710Z,39.99
2023-05-05T11:38:36.637Z,39.13
2023-05-05T11:43:41.891Z,38.63
2023-05-05T11:48:49.257Z,39.17
2023-05-05T11:53:52.821Z,38.74
2023-05-05T11:59:09.866Z,38.63
2023-05-05T12:04:16.485Z,38.58
2023-05-05T12:09:21.291Z,37.60
2023-05-05T12:14:25.892Z,37.45
2023-05-05T12:19:33.289Z,37.33
2023-05-05T12:24:36.464Z,36.64
2023-05-05T12:29:39.568Z,36.18
2023-05-05T12:34:43.402Z,37.08
2023-05-05T12:39:46.509Z,38.02
2023-05-05T12:44:49.925Z,36.71
2023-05-05T12:49:53.652Z,36.19
2023-05-05T12:55:00.248Z,35.90
2023-05-05T13:00:15.646Z,36.15
2023-05-05T13:05:33.182Z,35.82
2023-05-05T13:10:36.616Z,35.59
2023-05-05T13:15:39.709Z,35.71
2023-05-05T13:20:42.812Z,35.32
2023-05-05T13:25:46.008Z,35.04
2023-05-05T13:30:49.145Z,35.14
2023-05-05T13:35:52.347Z,34.42
2023-05-05T13:40:55.560Z,34.95
2023-05-05T13:46:08.639Z,34.58
2023-05-05T13:51:16.532Z,34.50
2023-05-05T13:56:19.949Z,34.84
2023-05-05T14:01:23.112Z,34.42
2023-05-05T14:06:26.558Z,34.47
2023-05-05T14:11:31.725Z,34.49
2023-05-05T14:16:35.023Z,34.76
2023-05-05T14:21:38.344Z,34.16
2023-05-05T14:26:41.363Z,34.48
2023-05-05T14:31:44.366Z,34.69
2023-05-05T14:36:47.822Z,34.71
2023-05-05T14:41:51.195Z,34.95
2023-05-05T14:46:54.296Z,34.96
2023-05-05T14:51:57.421Z,35.00
2023-05-05T14:57:00.644Z,34.89
2023-05-05T15:02:03.836Z,34.70
2023-05-05T15:07:06.954Z,34.07
2023-05-05T15:12:09.942Z,34.17
2023-05-05T15:17:13.160Z,34.42
2023-05-05T15:22:16.158Z,34.37
2023-05-05T15:27:19.172Z,34.50
2023-05-05T15:32:22.340Z,34.90
2023-05-05T15:37:25.387Z,34.95
2023-05-05T15:42:28.595Z,34.45
2023-05-05T15:47:31.683Z,34.49
2023-05-05T15:52:35.117Z,34.16
2023-05-05T15:57:39.978Z,33.64
2023-05-05T16:02:43.229Z,33.90
2023-05-05T16:07:46.723Z,34.08
2023-05-05T16:12:50.253Z,34.27
2023-05-05T16:17:53.375Z,35.38
2023-05-05T16:22:57.474Z,35.67
2023-05-05T16:28:01.804Z,35.70
2023-05-05T16:33:05.040Z,35.23
2023-05-05T16:38:08.010Z,35.98
2023-05-05T16:43:11.138Z,35.45
2023-05-05T16:48:14.858Z,36.31
2023-05-05T16:53:18.059Z,36.73
2023-05-05T16:58:22.583Z,36.80
2023-05-05T17:03:25.717Z,36.71
2023-05-05T17:08:28.682Z,37.37
2023-05-05T17:13:31.826Z,37.49
2023-05-05T17:18:34.945Z,38.00
2023-05-05T17:23:37.959Z,38.30
2023-05-05T17:28:41.148Z,38.54
2023-05-05T17:33:44.164Z,38.75
2023-05-05T17:38:47.274Z,38.50
2023-05-05T17:43:50.372Z,38.74
2023-05-05T17:48:53.848Z,39.11
2023-05-05T17:53:57.103Z,39.53
2023-05-05T17:59:00.894Z,39.42
2023-05-05T18:04:04.446Z,39.68
2023-05-05T18:09:09.207Z,39.83
2023-05-05T18:14:14.146Z,40.10
2023-05-05T18:19:17.255Z,40.44
2023-05-05T18:24:20.771Z,40.70
2023-05-05T18:29:23.992Z,40.97
2023-05-05T18:34:27.097Z,41.40
2023-05-05T18:39:30.521Z,41.59
2023-05-05T18:44:34.948Z,41.84
2023-05-05T18:49:38.169Z,42.20
2023-05-05T18:54:41.285Z,42.48
2023-05-05T18:59:44.283Z,43.04
2023-05-05T19:04:47.208Z,43.64
2023-05-05T19:09:50.900Z,44.92
2023-05-05T19:14:53.808Z,46.01
2023-05-05T19:19:56.918Z,46.99
2023-05-05T19:24:59.921Z,47.90
2023-05-05T19:30:05.078Z,48.37
2023-05-05T19:35:10.700Z,49.17
2023-05-05T19:40:14.156Z,49.68
2023-05-05T19:45:17.792Z,50.29
2023-05-05T19:50:21.507Z,50.46
2023-05-05T19:55:24.721Z,50.93
2023-05-05T20:00:27.820Z,51.47
2023-05-05T20:05:31.030Z,51.62
2023-05-05T20:10:34.754Z,51.97
2023-05-05T20:15:37.740Z,52.57
2023-05-05T20:20:40.872Z,52.88
2023-05-05T20:25:43.894Z,54.02
2023-05-05T20:30:46.885Z,54.69
2023-05-05T20:35:49.790Z,55.00
2023-05-05T20:40:53.008Z,54.75
2023-05-05T20:45:56.316Z,54.83
2023-05-05T20:51:03.026Z,54.88
2023-05-05T20:56:08.002Z,55.99
2023-05-05T21:01:11.950Z,55.34
2023-05-05T21:06:14.996Z,55.82
2023-05-05T21:11:18.009Z,57.46
2023-05-05T21:16:21.097Z,56.51
2023-05-05T21:21:24.727Z,57.27
2023-05-05T21:26:27.944Z,59.96
2023-05-05T21:31:31.177Z,60.49
2023-05-05T21:36:34.566Z,61.45
2023-05-05T21:41:37.689Z,62.08
2023-05-05T21:46:40.860Z,62.41
2023-05-05T21:51:45.026Z,60.07
2023-05-05T21:56:48.134Z,58.18
2023-05-05T22:01:51.353Z,59.01
2023-05-05T22:06:54.452Z,60.48
2023-05-05T22:11:57.757Z,61.48
2023-05-05T22:17:00.873Z,61.58
2023-05-05T22:22:04.188Z,61.65
2023-05-05T22:27:07.327Z,59.70
2023-05-05T22:32:10.508Z,61.11
2023-05-05T22:37:14.234Z,62.31
2023-05-05T22:42:17.343Z,60.97
2023-05-05T22:47:20.503Z,58.53
2023-05-05T22:52:25.815Z,59.60
2023-05-05T22:57:28.824Z,60.84
2023-05-05T23:02:32.123Z,61.28
2023-05-05T23:07:35.340Z,61.48
2023-05-05T23:12:38.561Z,61.73
2023-05-05T23:17:41.593Z,61.77
2023-05-05T23:22:44.664Z,61.39
2023-05-05T23:27:48.191Z,62.18
2023-05-05T23:32:51.227Z,62.70
2023-05-05T23:37:54.299Z,59.30
2023-05-05T23:42:57.310Z,58.63
2023-05-05T23:48:00.560Z,60.24
2023-05-05T23:53:03.622Z,60.50
2023-05-05T23:58:06.735Z,60.86
